createdAt,value
2022-11-24T00:01:30.876Z,98293.97
2022-11-24T00:04:01.577Z,98286.84
2022-11-24T00:06:31.236Z,98291.44
2022-11-24T00:09:00.354Z,98300.94
2022-11-24T00:11:33.046Z,98298.31
2022-11-24T00:14:01.927Z,98301.91
2022-11-24T00:16:32.063Z,98311.06
2022-11-24T00:19:02.508Z,98303.84
2022-11-24T00:21:32.933Z,98298.31
2022-11-24T00:24:05.116Z,98300.69
2022-11-24T00:26:38.384Z,98302.50
2022-11-24T00:29:08.288Z,98314.06
2022-11-24T00:31:38.131Z,98306.09
2022-11-24T00:34:07.906Z,98310.56
2022-11-24T00:36:37.168Z,98312.66
2022-11-24T00:39:07.063Z,98318.47
2022-11-24T00:41:37.181Z,98324.31
2022-11-24T00:44:07.458Z,98332.50
2022-11-24T00:46:37.585Z,98322.75
2022-11-24T00:49:08.791Z,98321.81
2022-11-24T00:51:37.199Z,98325.88
2022-11-24T00:54:06.607Z,98321.09
2022-11-24T00:56:36.340Z,98325.16
2022-11-24T00:59:05.246Z,98340.69
2022-11-24T01:01:34.164Z,98338.91
2022-11-24T01:04:03.712Z,98339.50
2022-11-24T01:06:33.317Z,98345.44
2022-11-24T01:09:02.234Z,98345.44
2022-11-24T01:11:53.578Z,98351.47
2022-11-24T01:14:25.997Z,98360.50
2022-11-24T01:16:55.395Z,98345.69
2022-11-24T01:19:24.466Z,98347.97
2022-11-24T01:21:52.552Z,98353.03
2022-11-24T01:24:21.362Z,98358.81
2022-11-24T01:26:50.570Z,98358.44
2022-11-24T01:29:19.505Z,98370.00
2022-11-24T01:31:53.246Z,98376.25
2022-11-24T01:34:21.626Z,98382.28
2022-11-24T01:36:49.879Z,98383.44
2022-11-24T01:39:18.434Z,98391.53
2022-11-24T01:41:46.871Z,98388.75
2022-11-24T01:44:23.131Z,98388.97
2022-11-24T01:46:56.414Z,98383.31
2022-11-24T01:49:29.149Z,98388.25
2022-11-24T01:52:01.451Z,98389.09
2022-11-24T01:54:33.671Z,98389.22
2022-11-24T01:57:09.409Z,98392.59
2022-11-24T01:59:38.221Z,98389.44
2022-11-24T02:02:08.717Z,98384.22
2022-11-24T02:04:38.273Z,98383.03
2022-11-24T02:07:09.099Z,98368.03
2022-11-24T02:09:44.932Z,98385.28
2022-11-24T02:12:13.209Z,98389.97
2022-11-24T02:14:44.080Z,98389.97
2022-11-24T02:17:13.743Z,98388.09
2022-11-24T02:19:53.914Z,98381.06
2022-11-24T02:22:29.460Z,98374.66
2022-11-24T02:25:04.588Z,98338.97
2022-11-24T02:27:34.297Z,98336.50
2022-11-24T02:30:02.505Z,98359.31
2022-11-24T02:32:33.512Z,98354.34
2022-11-24T02:35:02.912Z,98344.00
2022-11-24T02:37:31.589Z,98355.84
2022-11-24T02:39:59.708Z,98364.50
2022-11-24T02:42:30.005Z,98342.78
2022-11-24T02:45:01.616Z,98370.78
2022-11-24T02:47:29.781Z,98373.41
2022-11-24T02:49:57.848Z,98378.06
2022-11-24T02:52:26.164Z,98384.72
2022-11-24T02:54:54.772Z,98387.25
2022-11-24T02:57:23.970Z,98368.38
2022-11-24T02:59:51.986Z,98384.44
2022-11-24T03:02:21.443Z,98383.63
2022-11-24T03:04:49.616Z,98388.69
2022-11-24T03:07:18.271Z,98371.78
2022-11-24T03:09:49.002Z,98386.19
2022-11-24T03:12:17.145Z,98387.50
2022-11-24T03:14:45.163Z,98386.03
2022-11-24T03:17:13.456Z,98396.53
2022-11-24T03:19:42.912Z,98405.25
2022-11-24T03:22:10.952Z,98381.50
2022-11-24T03:24:38.962Z,98419.69
2022-11-24T03:27:07.104Z,98425.56
2022-11-24T03:29:35.200Z,98424.72
2022-11-24T03:32:03.188Z,98418.91
2022-11-24T03:34:31.488Z,98426.94
2022-11-24T03:37:01.114Z,98420.81
2022-11-24T03:39:29.108Z,98429.72
2022-11-24T03:41:57.146Z,98423.91
2022-11-24T03:44:25.220Z,98428.13
2022-11-24T03:46:53.307Z,98430.22
2022-11-24T03:49:21.350Z,98442.97
2022-11-24T03:51:49.392Z,98439.88
2022-11-24T03:54:18.859Z,98444.78
2022-11-24T03:56:47.584Z,98448.06
2022-11-24T03:59:15.597Z,98446.72
2022-11-24T04:01:43.672Z,98438.41
2022-11-24T04:04:12.046Z,98428.44
2022-11-24T04:06:40.262Z,98440.63
2022-11-24T04:09:09.092Z,98446.41
2022-11-24T04:11:56.179Z,98444.72
2022-11-24T04:14:24.391Z,98462.53
2022-11-24T04:16:52.411Z,98456.06
2022-11-24T04:19:20.729Z,98461.38
2022-11-24T04:21:48.845Z,98461.22
2022-11-24T04:24:16.948Z,98460.78
2022-11-24T04:26:46.526Z,98460.63
2022-11-24T04:29:14.918Z,98456.50
2022-11-24T04:31:42.991Z,98475.44
2022-11-24T04:34:12.330Z,98461.19
2022-11-24T04:36:42.796Z,98467.84
2022-11-24T04:39:25.934Z,98461.72
2022-11-24T04:41:57.755Z,98465.19
2022-11-24T04:44:25.806Z,98439.63
2022-11-24T04:46:53.880Z,98463.16
2022-11-24T04:49:22.009Z,98463.66
2022-11-24T04:51:50.182Z,98468.34
2022-11-24T04:54:18.243Z,98461.72
2022-11-24T04:56:46.365Z,98452.41
2022-11-24T04:59:16.597Z,98470.28
2022-11-24T05:01:45.534Z,98459.69
2022-11-24T05:04:15.197Z,98461.63
2022-11-24T05:06:43.238Z,98459.28
2022-11-24T05:09:15.958Z,98462.44
2022-11-24T05:11:44.507Z,98463.41
2022-11-24T05:14:12.599Z,98477.50
2022-11-24T05:16:42.058Z,98477.25
2022-11-24T05:19:10.107Z,98475.91
2022-11-24T05:21:38.186Z,98478.09
2022-11-24T05:24:06.543Z,98458.47
2022-11-24T05:26:35.606Z,98460.38
2022-11-24T05:29:03.596Z,98466.75
2022-11-24T05:31:31.658Z,98458.31
2022-11-24T05:34:01.114Z,98465.19
2022-11-24T05:36:46.388Z,98457.16
2022-11-24T05:39:14.549Z,98462.44
2022-11-24T05:41:43.327Z,98464.34
2022-11-24T05:44:11.463Z,98462.69
2022-11-24T05:46:39.541Z,98467.84
2022-11-24T05:49:09.091Z,98460.53
2022-11-24T05:51:37.084Z,98465.19
2022-11-24T05:54:05.357Z,98468.81
2022-11-24T05:56:33.377Z,98471.56
2022-11-24T05:59:05.333Z,98474.94
2022-11-24T06:01:36.464Z,98481.47
2022-11-24T06:04:04.641Z,98470.88
2022-11-24T06:06:34.100Z,98472.00
2022-11-24T06:09:02.212Z,98467.50
2022-11-24T06:11:30.253Z,98455.06
2022-11-24T06:13:58.494Z,98468.25
2022-11-24T06:16:26.902Z,98458.22
2022-11-24T06:18:54.963Z,98464.84
2022-11-24T06:21:22.948Z,98463.84
2022-11-24T06:23:52.390Z,98461.06
2022-11-24T06:26:20.403Z,98462.44
2022-11-24T06:28:48.461Z,98463.53
2022-11-24T06:31:16.628Z,98461.16
2022-11-24T06:33:44.810Z,98475.25
2022-11-24T06:36:15.517Z,98478.88
2022-11-24T06:38:44.558Z,98486.19
2022-11-24T06:41:16.477Z,98491.16
2022-11-24T06:43:44.764Z,98495.63
2022-11-24T06:46:13.589Z,98487.38
2022-11-24T06:48:41.652Z,98504.09
2022-11-24T06:51:13.067Z,98517.53
2022-11-24T06:53:42.486Z,98498.69
2022-11-24T06:56:16.265Z,98510.34
2022-11-24T06:58:47.795Z,98517.03
2022-11-24T07:01:17.042Z,98511.97
2022-11-24T07:03:45.446Z,98513.25
2022-11-24T07:06:13.621Z,98515.91
2022-11-24T07:08:41.872Z,98520.69
2022-11-24T07:11:13.462Z,98521.13
2022-11-24T07:13:41.540Z,98537.75
2022-11-24T07:16:16.075Z,98538.56
2022-11-24T07:18:44.683Z,98554.97
2022-11-24T07:21:13.400Z,98546.13
2022-11-24T07:23:41.675Z,98541.78
2022-11-24T07:26:11.170Z,98547.81
2022-11-24T07:28:39.348Z,98551.72
2022-11-24T07:31:08.672Z,98556.59
2022-11-24T07:33:38.431Z,98572.81
2022-11-24T07:36:08.676Z,98562.50
2022-11-24T07:38:37.292Z,98577.78
2022-11-24T07:41:07.315Z,98572.69
2022-11-24T07:43:37.311Z,98579.59
2022-11-24T07:46:06.553Z,98583.16
2022-11-24T07:48:35.215Z,98594.81
2022-11-24T07:51:05.536Z,98591.44
2022-11-24T07:53:37.898Z,98592.50
2022-11-24T07:56:07.463Z,98594.50
2022-11-24T07:58:37.084Z,98605.72
2022-11-24T08:01:12.925Z,98589.13
2022-11-24T08:03:45.299Z,98603.81
2022-11-24T08:06:24.452Z,98598.34
2022-11-24T08:08:54.883Z,98607.44
2022-11-24T08:11:23.330Z,98607.66
2022-11-24T08:13:51.333Z,98595.25
2022-11-24T08:16:21.054Z,98613.34
2022-11-24T08:18:52.194Z,98606.28
2022-11-24T08:21:23.410Z,98611.34
2022-11-24T08:23:54.824Z,98598.94
2022-11-24T08:26:23.111Z,98620.41
2022-11-24T08:28:54.968Z,98609.91
2022-11-24T08:31:22.991Z,98615.75
2022-11-24T08:33:51.346Z,98610.16
2022-11-24T08:36:22.032Z,98616.94
2022-11-24T08:38:50.288Z,98616.78
2022-11-24T08:41:18.740Z,98627.19
2022-11-24T08:43:47.163Z,98619.66
2022-11-24T08:46:17.820Z,98629.59
2022-11-24T08:48:48.683Z,98631.38
2022-11-24T08:51:19.459Z,98637.63
2022-11-24T08:53:49.289Z,98639.63
2022-11-24T08:56:17.482Z,98643.69
2022-11-24T08:58:45.734Z,98641.25
2022-11-24T09:01:16.076Z,98642.09
2022-11-24T09:03:50.341Z,98650.97
2022-11-24T09:06:20.165Z,98660.75
2022-11-24T09:08:49.898Z,98659.16
2022-11-24T09:11:18.445Z,98657.25
2022-11-24T09:13:46.904Z,98671.34
2022-11-24T09:16:17.691Z,98658.63
2022-11-24T09:18:46.583Z,98661.06
2022-11-24T09:21:16.232Z,98687.88
2022-11-24T09:23:45.328Z,98687.97
2022-11-24T09:26:17.532Z,98689.97
2022-11-24T09:28:45.896Z,98681.94
2022-11-24T09:31:16.056Z,98702.88
2022-11-24T09:33:45.174Z,98705.31
2022-11-24T09:36:13.632Z,98707.13
2022-11-24T09:38:42.329Z,98707.09
2022-11-24T09:41:28.611Z,98709.44
2022-11-24T09:44:03.558Z,98720.25
2022-11-24T09:46:39.050Z,98718.84
2022-11-24T09:49:12.851Z,98714.16
2022-11-24T09:51:44.110Z,98729.63
2022-11-24T09:54:17.833Z,98735.84
2022-11-24T09:56:48.477Z,98723.44
2022-11-24T09:59:19.317Z,98719.78
2022-11-24T10:01:48.737Z,98739.13
2022-11-24T10:04:20.945Z,98734.22
2022-11-24T10:06:57.975Z,98733.81
2022-11-24T10:09:55.964Z,98730.31
2022-11-24T10:12:42.347Z,98741.22
2022-11-24T10:15:31.538Z,98739.50
2022-11-24T10:18:17.192Z,98743.97
2022-11-24T10:20:53.745Z,98738.22
2022-11-24T10:23:39.926Z,98747.13
2022-11-24T10:26:13.736Z,98749.84
2022-11-24T10:28:49.649Z,98751.94
2022-11-24T10:31:25.053Z,98749.19
2022-11-24T10:33:53.170Z,98745.94
2022-11-24T10:36:30.837Z,98744.13
2022-11-24T10:39:06.357Z,98750.22
2022-11-24T10:41:44.024Z,98745.31
2022-11-24T10:44:15.680Z,98744.69
2022-11-24T10:46:43.851Z,98737.31
2022-11-24T10:49:20.080Z,98744.69
2022-11-24T10:52:14.568Z,98736.84
2022-11-24T10:54:55.091Z,98746.16
2022-11-24T10:57:30.082Z,98740.38
2022-11-24T11:00:01.860Z,98734.84
2022-11-24T11:02:37.435Z,98733.75
2022-11-24T11:05:28.159Z,98740.03
2022-11-24T11:08:16.427Z,98740.63
2022-11-24T11:10:45.780Z,98738.63
2022-11-24T11:13:29.456Z,98737.66
2022-11-24T11:16:00.447Z,98735.00
2022-11-24T11:18:33.892Z,98735.00
2022-11-24T11:21:04.114Z,98729.84
2022-11-24T11:23:36.522Z,98719.66
2022-11-24T11:26:32.179Z,98744.09
2022-11-24T11:34:55.701Z,98732.50
2022-11-24T11:37:27.295Z,98730.72
2022-11-24T11:39:56.496Z,98736.25
2022-11-24T11:43:01.205Z,98730.47
2022-11-24T11:45:33.611Z,98747.88
2022-11-24T11:48:22.363Z,98742.28
2022-11-24T11:53:47.308Z,98749.69
2022-11-24T11:56:28.436Z,98746.66
2022-11-24T11:59:28.723Z,98746.56
2022-11-24T12:02:11.706Z,98742.06
2022-11-24T12:04:51.422Z,98737.84
2022-11-24T12:07:46.767Z,98736.91
2022-11-24T12:10:25.781Z,98744.28
2022-11-24T12:13:31.186Z,98755.41
2022-11-24T12:16:07.217Z,98753.59
2022-11-24T12:18:57.766Z,98748.38
2022-11-24T12:21:35.478Z,98765.50
2022-11-24T12:24:13.012Z,98761.41
2022-11-24T12:26:46.423Z,98765.25
2022-11-24T12:29:37.066Z,98758.03
2022-11-24T12:32:19.706Z,98747.19
2022-11-24T12:34:56.628Z,98747.44
2022-11-24T12:37:41.545Z,98747.69
2022-11-24T12:40:17.115Z,98726.78
2022-11-24T12:42:53.630Z,98753.19
2022-11-24T12:45:29.788Z,98737.59
2022-11-24T12:48:15.460Z,98744.28
2022-11-24T12:50:45.461Z,98747.53
2022-11-24T12:53:18.351Z,98754.94
2022-11-24T12:55:47.421Z,98747.31
2022-11-24T12:58:21.731Z,98740.00
2022-11-24T13:01:16.243Z,98722.63
2022-11-24T13:03:58.455Z,98721.66
2022-11-24T13:06:36.474Z,98720.88
2022-11-24T13:09:11.447Z,98723.13
2022-11-24T13:11:42.860Z,98724.34
2022-11-24T13:14:20.251Z,98729.53
2022-11-24T13:17:21.566Z,98714.63
2022-11-24T13:19:42.245Z,98707.09
2022-11-24T13:22:19.942Z,98714.56
2022-11-24T13:25:13.452Z,98722.25
2022-11-24T13:27:44.470Z,98710.19
2022-11-24T13:30:54.506Z,98720.09
2022-11-24T13:33:37.237Z,98727.63
2022-11-24T13:36:34.030Z,98729.59
2022-11-24T13:39:03.993Z,98738.25
2022-11-24T13:42:41.714Z,98737.72
2022-11-24T13:45:12.030Z,98742.91
2022-11-24T13:47:43.075Z,98745.22
2022-11-24T13:50:48.903Z,98747.28
2022-11-24T13:53:24.933Z,98748.28
2022-11-24T13:55:58.593Z,98736.75
2022-11-24T13:58:34.742Z,98727.34
2022-11-24T14:01:14.489Z,98730.00
2022-11-24T14:04:13.984Z,98739.63
2022-11-24T14:06:41.624Z,98736.50
2022-11-24T14:09:22.892Z,98711.47
2022-11-24T14:12:06.740Z,98705.16
2022-11-24T14:14:35.377Z,98705.50
2022-11-24T14:17:19.633Z,98723.06
2022-11-24T14:19:48.936Z,98716.28
2022-11-24T14:22:20.076Z,98718.72
2022-11-24T14:24:55.013Z,98714.25
2022-11-24T14:27:32.993Z,98712.13
2022-11-24T14:30:05.290Z,98707.78
2022-11-24T14:32:35.415Z,98705.69
2022-11-24T14:35:03.659Z,98699.53
2022-11-24T14:37:33.099Z,98652.78
2022-11-24T14:40:04.020Z,98628.34
2022-11-24T14:42:33.369Z,98668.66
2022-11-24T14:45:04.067Z,98685.34
2022-11-24T14:47:36.357Z,98633.72
2022-11-24T14:50:14.009Z,98632.53
2022-11-24T14:52:47.964Z,98590.84
2022-11-24T14:55:31.167Z,98600.19
2022-11-24T14:58:01.668Z,98635.28
2022-11-24T15:00:35.471Z,98614.41
2022-11-24T15:03:21.746Z,98637.59
2022-11-24T15:06:02.433Z,98624.09
2022-11-24T15:08:38.628Z,98626.50
2022-11-24T15:11:09.182Z,98562.53
2022-11-24T15:13:39.760Z,98568.69
2022-11-24T15:16:17.129Z,98562.16
2022-11-24T15:18:55.707Z,98647.25
2022-11-24T15:21:49.384Z,98661.84
2022-11-24T15:24:22.301Z,98618.34
2022-11-24T15:27:01.710Z,98611.72
2022-11-24T15:29:33.482Z,98595.72
2022-11-24T15:32:02.504Z,98579.38
2022-11-24T15:34:32.247Z,98608.72
2022-11-24T15:37:00.541Z,98572.22
2022-11-24T15:39:28.739Z,98623.72
2022-11-24T15:41:56.816Z,98649.06
2022-11-24T15:44:24.828Z,98677.41
2022-11-24T15:46:53.230Z,98668.63
2022-11-24T15:49:21.400Z,98680.03
2022-11-24T15:51:50.930Z,98672.19
2022-11-24T15:54:20.666Z,98675.72
2022-11-24T15:56:48.725Z,98658.03
2022-11-24T15:59:20.597Z,98660.25
2022-11-24T16:01:50.000Z,98672.31
2022-11-24T16:04:18.597Z,98678.06
2022-11-24T16:06:46.609Z,98668.88
2022-11-24T16:09:17.715Z,98677.78
2022-11-24T16:11:45.787Z,98698.56
2022-11-24T16:14:13.996Z,98697.00
2022-11-24T16:16:42.052Z,98700.47
2022-11-24T16:19:10.458Z,98692.28
2022-11-24T16:21:38.536Z,98695.16
2022-11-24T16:24:07.049Z,98690.31
2022-11-24T16:26:36.446Z,98687.97
2022-11-24T16:29:04.452Z,98678.88
2022-11-24T16:31:32.622Z,98691.47
2022-11-24T16:34:00.953Z,98685.63
2022-11-24T16:36:29.292Z,98692.03
2022-11-24T16:38:57.449Z,98690.44
2022-11-24T16:41:25.608Z,98696.28
2022-11-24T16:43:55.211Z,98702.41
2022-11-24T16:46:25.128Z,98700.56
2022-11-24T16:48:55.205Z,98702.91
2022-11-24T16:51:25.582Z,98708.25
2022-11-24T16:53:59.755Z,98710.44
2022-11-24T16:56:28.619Z,98710.84
2022-11-24T16:58:58.351Z,98705.09
2022-11-24T17:01:27.249Z,98693.22
2022-11-24T17:03:55.298Z,98704.31
2022-11-24T17:06:23.666Z,98701.09
2022-11-24T17:08:51.931Z,98694.50
2022-11-24T17:11:21.643Z,98682.47
2022-11-24T17:13:50.370Z,98681.38
2022-11-24T17:16:21.477Z,98685.59
2022-11-24T17:18:50.505Z,98687.78
2022-11-24T17:21:21.662Z,98689.56
2022-11-24T17:23:55.829Z,98692.66
2022-11-24T17:26:25.667Z,98696.72
2022-11-24T17:28:56.090Z,98667.13
2022-11-24T17:31:26.603Z,98676.47
2022-11-24T17:33:56.715Z,98674.56
2022-11-24T17:36:25.245Z,98686.91
2022-11-24T17:38:53.497Z,98692.47
2022-11-24T17:41:22.371Z,98687.28
2022-11-24T17:43:55.908Z,98678.44
2022-11-24T17:46:26.019Z,98673.84
2022-11-24T17:48:55.421Z,98679.00
2022-11-24T17:51:24.957Z,98674.19
2022-11-24T17:53:54.948Z,98677.94
2022-11-24T17:56:30.816Z,98667.69
2022-11-24T17:59:00.519Z,98671.66
2022-11-24T18:01:31.597Z,98670.81
2022-11-24T18:03:59.978Z,98667.69
2022-11-24T18:06:28.929Z,98665.97
2022-11-24T18:08:58.714Z,98661.84
2022-11-24T18:11:31.521Z,98665.22
2022-11-24T18:14:02.694Z,98654.03
2022-11-24T18:16:33.465Z,98658.34
2022-11-24T18:19:10.870Z,98658.34
2022-11-24T18:21:39.297Z,98634.53
2022-11-24T18:24:07.942Z,98660.34
2022-11-24T18:26:35.948Z,98650.06
2022-11-24T18:29:04.222Z,98647.78
2022-11-24T18:31:35.610Z,98660.69
2022-11-24T18:34:05.689Z,98659.09
2022-11-24T18:36:34.628Z,98661.75
2022-11-24T18:39:03.407Z,98658.81
2022-11-24T18:41:31.928Z,98654.78
2022-11-24T18:44:02.495Z,98652.41
2022-11-24T18:46:30.690Z,98627.81
2022-11-24T18:49:00.524Z,98657.22
2022-11-24T18:51:30.119Z,98674.44
2022-11-24T18:53:59.162Z,98668.81
2022-11-24T18:56:27.490Z,98660.13
2022-11-24T18:58:56.816Z,98661.09
2022-11-24T19:01:26.340Z,98658.25
2022-11-24T19:03:56.751Z,98652.63
2022-11-24T19:06:29.057Z,98657.41
2022-11-24T19:08:57.579Z,98648.66
2022-11-24T19:11:28.218Z,98642.91
2022-11-24T19:13:56.900Z,98647.16
2022-11-24T19:16:25.767Z,98656.75
2022-11-24T19:18:57.374Z,98661.75
2022-11-24T19:21:27.333Z,98652.69
2022-11-24T19:23:59.794Z,98653.91
2022-11-24T19:26:31.348Z,98663.00
2022-11-24T19:28:59.613Z,98635.91
2022-11-24T19:31:28.094Z,98576.88
2022-11-24T19:33:58.514Z,98604.97
2022-11-24T19:36:28.345Z,98648.97
2022-11-24T19:38:58.019Z,98567.59
2022-11-24T19:41:28.122Z,98601.47
2022-11-24T19:44:33.302Z,98606.53
2022-11-24T19:47:01.727Z,98564.34
2022-11-24T19:49:29.788Z,98653.47
2022-11-24T19:51:59.483Z,98588.41
2022-11-24T19:54:27.725Z,98566.88
2022-11-24T19:57:39.593Z,98649.63
2022-11-24T20:00:09.641Z,98647.94
2022-11-24T20:02:37.708Z,98636.25
2022-11-24T20:05:06.328Z,98626.00
2022-11-24T20:07:36.042Z,98632.28
2022-11-24T20:10:07.737Z,98638.16
2022-11-24T20:12:36.410Z,98643.81
2022-11-24T20:15:04.808Z,98631.03
2022-11-24T20:17:33.048Z,98649.69
2022-11-24T20:20:22.501Z,98658.75
2022-11-24T20:22:51.930Z,98619.53
2022-11-24T20:25:19.962Z,98646.31
2022-11-24T20:27:47.988Z,98638.81
2022-11-24T20:30:19.295Z,98650.78
2022-11-24T20:32:53.750Z,98648.25
2022-11-24T20:35:31.523Z,98658.13
2022-11-24T20:38:16.228Z,98644.75
2022-11-24T20:40:55.638Z,98654.09
2022-11-24T20:43:32.737Z,98653.25
2022-11-24T20:46:11.090Z,98649.09
2022-11-24T20:48:50.917Z,98646.53
2022-11-24T20:51:23.131Z,98643.72
2022-11-24T20:53:57.532Z,98646.16
2022-11-24T20:56:29.356Z,98630.28
2022-11-24T20:58:59.075Z,98645.84
2022-11-24T21:01:52.026Z,98641.94
2022-11-24T21:04:24.093Z,98620.94
2022-11-24T21:06:53.663Z,98643.09
2022-11-24T21:09:23.327Z,98631.47
2022-11-24T21:11:52.888Z,98632.22
2022-11-24T21:14:21.065Z,98632.03
2022-11-24T21:16:49.794Z,98641.03
2022-11-24T21:19:19.131Z,98631.53
2022-11-24T21:21:49.157Z,98637.47
2022-11-24T21:24:19.064Z,98629.94
2022-11-24T21:26:49.206Z,98624.66
2022-11-24T21:29:20.349Z,98621.66
2022-11-24T21:31:49.721Z,98627.41
2022-11-24T21:34:19.704Z,98623.09
2022-11-24T21:36:48.129Z,98594.50
2022-11-24T21:39:17.243Z,98615.72
2022-11-24T21:41:45.610Z,98625.03
2022-11-24T21:44:15.824Z,98636.16
2022-11-24T21:46:49.585Z,98627.88
2022-11-24T21:49:22.502Z,98642.97
2022-11-24T21:51:55.361Z,98633.34
2022-11-24T21:54:23.915Z,98628.13
2022-11-24T21:56:51.916Z,98634.44
2022-11-24T21:59:22.930Z,98641.72
2022-11-24T22:01:51.425Z,98643.97
2022-11-24T22:04:19.885Z,98657.69
2022-11-24T22:06:48.610Z,98650.94
2022-11-24T22:09:18.410Z,98672.28
2022-11-24T22:11:49.263Z,98674.19
2022-11-24T22:14:17.720Z,98671.88
2022-11-24T22:16:48.444Z,98687.84
2022-11-24T22:22:31.038Z,98688.00
2022-11-24T22:24:59.054Z,98700.84
2022-11-24T22:27:27.991Z,98713.78
2022-11-24T22:29:56.120Z,98708.78
2022-11-24T22:32:25.624Z,98704.47
2022-11-24T22:34:53.912Z,98705.56
2022-11-24T22:37:22.405Z,98702.38
2022-11-24T22:39:51.125Z,98702.31
2022-11-24T22:42:20.620Z,98705.91
2022-11-24T22:44:48.693Z,98709.47
2022-11-24T22:47:17.221Z,98705.38
2022-11-24T22:49:47.046Z,98716.13
2022-11-24T22:52:16.017Z,98703.75
2022-11-24T22:54:44.695Z,98697.25
2022-11-24T22:57:13.498Z,98704.00
2022-11-24T22:59:41.540Z,98689.84
2022-11-24T23:02:10.328Z,98678.72
2022-11-24T23:04:38.727Z,98683.06
2022-11-24T23:07:08.513Z,98678.41
2022-11-24T23:09:36.575Z,98672.38
2022-11-24T23:12:04.805Z,98668.25
2022-11-24T23:14:32.975Z,98654.88
2022-11-24T23:17:02.458Z,98670.91
2022-11-24T23:19:30.744Z,98646.75
2022-11-24T23:21:59.374Z,98645.06
2022-11-24T23:24:28.868Z,98665.69
2022-11-24T23:26:57.456Z,98660.09
2022-11-24T23:29:25.626Z,98657.88
2022-11-24T23:31:53.719Z,98655.34
2022-11-24T23:34:22.055Z,98581.41
2022-11-24T23:36:50.687Z,98646.03
2022-11-24T23:39:18.662Z,98666.63
2022-11-24T23:41:48.611Z,98658.38
2022-11-24T23:44:16.793Z,98653.78
2022-11-24T23:46:44.768Z,98671.72
2022-11-24T23:49:13.303Z,98681.47
2022-11-24T23:51:42.328Z,98687.25
2022-11-24T23:54:12.519Z,98698.97
2022-11-24T23:56:40.553Z,98679.50
2022-11-24T23:59:12.961Z,98698.00
